createdAt,value
2018-08-03T00:01:05.585Z,22.00
2018-08-03T00:03:34.061Z,22.00
2018-08-03T00:06:02.498Z,22.00
2018-08-03T00:08:31.063Z,22.00
2018-08-03T00:10:59.533Z,21.90
2018-08-03T00:13:28.170Z,21.80
2018-08-03T00:15:56.624Z,21.80
2018-08-03T00:18:25.053Z,21.80
2018-08-03T00:20:53.637Z,21.80
2018-08-03T00:23:22.045Z,21.80
2018-08-03T00:25:50.570Z,21.80
2018-08-03T00:30:47.108Z,21.70
2018-08-03T00:33:15.507Z,21.70
2018-08-03T00:35:43.924Z,21.70
2018-08-03T00:38:12.366Z,21.70
2018-08-03T00:40:40.828Z,21.70
2018-08-03T00:43:09.303Z,21.70
2018-08-03T00:45:37.729Z,21.70
2018-08-03T00:48:06.381Z,21.70
2018-08-03T00:53:02.928Z,21.50
2018-08-03T00:55:31.365Z,21.40
2018-08-03T00:57:59.827Z,21.40
2018-08-03T01:00:28.480Z,21.40
2018-08-03T01:02:56.972Z,21.30
2018-08-03T01:05:25.352Z,21.40
2018-08-03T01:07:53.762Z,21.40
2018-08-03T01:10:22.157Z,21.40
2018-08-03T01:12:50.596Z,21.40
2018-08-03T01:15:19.010Z,21.30
2018-08-03T01:20:15.509Z,21.30
2018-08-03T01:25:12.036Z,21.20
2018-08-03T01:27:40.491Z,21.20
2018-08-03T01:30:08.938Z,21.10
2018-08-03T01:32:37.373Z,21.20
2018-08-03T01:35:05.798Z,21.20
2018-08-03T01:37:34.213Z,21.20
2018-08-03T01:40:02.720Z,21.10
2018-08-03T01:42:31.155Z,21.10
2018-08-03T01:44:59.643Z,21.00
2018-08-03T01:47:28.045Z,20.90
2018-08-03T01:49:56.455Z,20.90
2018-08-03T01:52:24.877Z,20.80
2018-08-03T01:54:53.320Z,20.80
2018-08-03T01:57:21.761Z,20.80
2018-08-03T01:59:50.147Z,20.90
2018-08-03T02:02:18.577Z,20.80
2018-08-03T02:04:46.963Z,20.90
2018-08-03T02:07:15.456Z,20.90
2018-08-03T02:09:43.925Z,20.90
2018-08-03T02:12:12.353Z,20.90
2018-08-03T02:14:40.725Z,20.80
2018-08-03T02:17:09.164Z,20.80
2018-08-03T02:19:37.545Z,20.70
2018-08-03T02:22:05.981Z,20.60
2018-08-03T02:24:34.369Z,20.60
2018-08-03T02:27:02.755Z,20.60
2018-08-03T02:29:31.238Z,20.50
2018-08-03T02:31:59.664Z,20.40
2018-08-03T02:34:28.090Z,20.40
2018-08-03T02:36:56.489Z,20.30
2018-08-03T02:39:24.953Z,20.30
2018-08-03T02:41:53.384Z,20.20
2018-08-03T02:44:21.841Z,20.20
2018-08-03T02:46:50.249Z,20.10
2018-08-03T02:49:18.671Z,20.10
2018-08-03T02:54:15.204Z,20.20
2018-08-03T02:56:43.624Z,20.10
2018-08-03T02:59:12.064Z,20.10
2018-08-03T03:01:40.465Z,20.00
2018-08-03T03:04:08.929Z,20.00
2018-08-03T03:06:37.336Z,20.00
2018-08-03T03:09:08.669Z,20.00
2018-08-03T03:11:37.165Z,20.00
2018-08-03T03:14:05.986Z,20.00
2018-08-03T03:16:34.424Z,20.00
2018-08-03T03:19:03.017Z,20.00
2018-08-03T03:21:31.448Z,19.90
2018-08-03T03:24:00.126Z,19.80
2018-08-03T03:26:28.537Z,19.70
2018-08-03T03:28:56.976Z,19.60
2018-08-03T03:31:25.377Z,19.60
2018-08-03T03:33:53.940Z,19.70
2018-08-03T03:36:22.345Z,19.70
2018-08-03T03:38:50.848Z,19.70
2018-08-03T03:43:47.441Z,19.80
2018-08-03T03:46:15.917Z,19.70
2018-08-03T03:48:44.342Z,19.70
2018-08-03T03:51:12.761Z,19.70
2018-08-03T03:56:09.340Z,19.80
2018-08-03T03:58:37.836Z,19.80
2018-08-03T04:01:06.254Z,19.80
2018-08-03T04:03:34.669Z,19.80
2018-08-03T04:06:03.121Z,19.80
2018-08-03T04:13:27.826Z,19.90
2018-08-03T04:15:56.294Z,19.90
2018-08-03T04:20:53.281Z,20.00
2018-08-03T04:23:21.727Z,20.00
2018-08-03T04:25:50.189Z,20.10
2018-08-03T04:28:18.585Z,20.10
2018-08-03T04:30:47.021Z,20.10
2018-08-03T04:33:15.428Z,20.10
2018-08-03T04:38:12.021Z,20.20
2018-08-03T04:40:40.472Z,20.10
2018-08-03T04:43:08.941Z,20.10
2018-08-03T04:48:05.509Z,20.10
2018-08-03T04:50:33.936Z,20.10
2018-08-03T04:53:02.372Z,20.10
2018-08-03T04:55:30.829Z,20.10
2018-08-03T04:57:59.292Z,20.20
2018-08-03T05:02:55.889Z,20.20
2018-08-03T05:05:24.314Z,20.40
2018-08-03T05:07:52.722Z,20.60
2018-08-03T05:10:21.207Z,20.70
2018-08-03T05:12:49.625Z,20.80
2018-08-03T05:15:18.145Z,20.80
2018-08-03T05:17:46.536Z,20.90
2018-08-03T05:20:15.013Z,21.10
2018-08-03T05:22:43.436Z,21.20
2018-08-03T05:25:11.886Z,21.30
2018-08-03T05:27:40.285Z,21.40
2018-08-03T05:30:09.708Z,21.40
2018-08-03T05:32:38.368Z,21.40
2018-08-03T05:35:07.804Z,21.40
2018-08-03T05:37:36.216Z,21.50
2018-08-03T05:40:05.069Z,21.60
2018-08-03T05:42:33.528Z,21.80
2018-08-03T05:45:01.989Z,21.80
2018-08-03T05:47:30.405Z,22.00
2018-08-03T05:49:58.932Z,22.20
2018-08-03T05:52:27.415Z,22.40
2018-08-03T05:54:56.372Z,22.50
2018-08-03T05:57:25.077Z,22.60
2018-08-03T05:59:53.525Z,22.80
2018-08-03T06:02:22.096Z,22.90
2018-08-03T06:04:50.512Z,22.90
2018-08-03T06:07:18.955Z,23.20
2018-08-03T06:09:47.365Z,23.30
2018-08-03T06:12:15.814Z,23.80
2018-08-03T06:14:44.252Z,24.00
2018-08-03T06:17:12.718Z,24.10
2018-08-03T06:19:41.193Z,24.40
2018-08-03T06:22:09.629Z,24.80
2018-08-03T06:24:38.078Z,25.30
2018-08-03T06:27:06.736Z,25.90
2018-08-03T06:29:35.240Z,26.40
2018-08-03T06:32:03.665Z,27.00
2018-08-03T06:34:32.080Z,27.50
2018-08-03T06:37:00.521Z,28.00
2018-08-03T06:39:28.933Z,27.90
2018-08-03T06:41:57.393Z,29.00
2018-08-03T06:44:25.862Z,29.50
2018-08-03T06:46:54.352Z,30.00
2018-08-03T06:49:22.758Z,31.20
2018-08-03T06:51:51.220Z,31.80
2018-08-03T06:54:19.645Z,32.00
2018-08-03T06:56:48.077Z,31.70
2018-08-03T06:59:16.508Z,31.60
2018-08-03T07:01:45.017Z,31.60
2018-08-03T07:04:13.418Z,32.30
2018-08-03T07:06:41.885Z,32.30
2018-08-03T07:09:11.752Z,32.70
2018-08-03T07:11:40.375Z,33.30
2018-08-03T07:14:08.789Z,34.50
2018-08-03T07:16:37.245Z,34.50
2018-08-03T07:19:05.761Z,35.10
2018-08-03T07:21:34.190Z,35.90
2018-08-03T07:24:02.712Z,34.90
2018-08-03T07:26:31.121Z,34.20
2018-08-03T07:31:27.797Z,35.10
2018-08-03T07:33:56.192Z,36.10
2018-08-03T07:38:52.761Z,36.80
2018-08-03T07:41:21.185Z,37.70
2018-08-03T07:43:49.713Z,38.50
2018-08-03T07:48:46.373Z,39.90
2018-08-03T07:51:14.825Z,39.50
2018-08-03T07:53:43.323Z,39.40
2018-08-03T07:56:11.752Z,40.10
2018-08-03T07:58:40.220Z,40.50
2018-08-03T08:01:08.668Z,41.20
2018-08-03T08:03:37.130Z,41.50
2018-08-03T08:06:05.631Z,41.60
2018-08-03T08:08:34.048Z,41.60
2018-08-03T08:11:02.478Z,41.70
2018-08-03T08:13:30.932Z,41.80
2018-08-03T08:15:59.404Z,40.50
2018-08-03T08:18:27.861Z,40.40
2018-08-03T08:20:56.272Z,41.20
2018-08-03T08:23:24.697Z,42.20
2018-08-03T08:25:53.107Z,42.50
2018-08-03T08:28:21.538Z,43.70
2018-08-03T08:30:49.968Z,43.70
2018-08-03T08:33:18.404Z,43.10
2018-08-03T08:35:46.796Z,42.30
2018-08-03T08:38:15.208Z,42.40
2018-08-03T08:40:43.643Z,42.10
2018-08-03T08:43:12.200Z,42.60
2018-08-03T08:45:40.988Z,43.00
2018-08-03T08:48:09.446Z,43.00
2018-08-03T08:50:37.916Z,42.90
2018-08-03T08:53:06.393Z,41.70
2018-08-03T08:58:03.081Z,40.70
2018-08-03T09:00:31.537Z,41.00
2018-08-03T09:03:00.005Z,40.90
2018-08-03T09:05:28.429Z,40.30
2018-08-03T09:07:56.948Z,41.00
2018-08-03T09:10:25.317Z,41.80
2018-08-03T09:12:53.729Z,42.10
2018-08-03T09:15:22.304Z,43.00
2018-08-03T09:20:18.874Z,44.40
2018-08-03T09:22:47.340Z,44.60
2018-08-03T09:25:15.756Z,44.50
2018-08-03T09:27:44.184Z,43.90
2018-08-03T09:30:12.611Z,43.70
2018-08-03T09:32:41.008Z,43.80
2018-08-03T09:35:09.492Z,44.60
2018-08-03T09:37:37.927Z,44.90
2018-08-03T09:40:06.500Z,44.70
2018-08-03T09:42:35.041Z,44.40
2018-08-03T09:45:03.781Z,43.50
2018-08-03T09:47:32.229Z,41.60
2018-08-03T09:50:00.690Z,41.30
2018-08-03T09:52:29.172Z,41.30
2018-08-03T09:54:57.632Z,41.20
2018-08-03T09:57:26.076Z,39.80
2018-08-03T09:59:54.509Z,40.00
2018-08-03T10:02:22.953Z,40.10
2018-08-03T10:04:51.536Z,39.00
2018-08-03T10:07:20.014Z,38.20
2018-08-03T10:09:48.416Z,39.00
2018-08-03T10:12:16.828Z,39.70
2018-08-03T10:14:45.248Z,39.60
2018-08-03T10:17:13.668Z,40.00
2018-08-03T10:19:42.249Z,40.80
2018-08-03T10:22:10.656Z,41.10
2018-08-03T10:24:39.180Z,41.80
2018-08-03T10:27:07.589Z,41.40
2018-08-03T10:29:36.067Z,41.20
2018-08-03T10:32:04.473Z,40.00
2018-08-03T10:34:32.896Z,38.90
2018-08-03T10:37:01.349Z,37.40
2018-08-03T10:39:29.806Z,36.30
2018-08-03T10:41:58.209Z,36.00
2018-08-03T10:44:26.711Z,35.60
2018-08-03T10:49:23.293Z,34.20
2018-08-03T10:51:51.859Z,33.90
2018-08-03T10:54:20.289Z,33.40
2018-08-03T10:56:48.701Z,32.60
2018-08-03T10:59:17.150Z,31.80
2018-08-03T11:01:45.640Z,31.40
2018-08-03T11:04:14.018Z,31.40
2018-08-03T11:06:42.463Z,31.30
2018-08-03T11:09:11.014Z,31.10
2018-08-03T11:11:39.460Z,31.10
2018-08-03T11:14:08.036Z,31.30
2018-08-03T11:16:36.497Z,31.50
2018-08-03T11:19:04.980Z,31.50
2018-08-03T11:24:01.637Z,31.70
2018-08-03T11:26:30.104Z,31.90
2018-08-03T11:28:58.529Z,32.00
2018-08-03T11:31:26.964Z,32.00
2018-08-03T11:36:23.601Z,32.20
2018-08-03T11:38:52.005Z,32.30
2018-08-03T11:41:20.432Z,32.10
2018-08-03T11:43:48.872Z,31.80
2018-08-03T11:46:17.340Z,31.50
2018-08-03T11:48:45.761Z,31.50
2018-08-03T11:51:14.202Z,31.40
2018-08-03T11:53:42.653Z,31.40
2018-08-03T11:56:11.088Z,31.50
2018-08-03T11:58:39.491Z,31.60
2018-08-03T12:01:07.953Z,31.80
2018-08-03T12:03:36.353Z,31.80
2018-08-03T12:06:04.814Z,32.00
2018-08-03T12:08:33.389Z,32.10
2018-08-03T12:11:01.825Z,32.10
2018-08-03T12:13:30.221Z,32.10
2018-08-03T12:15:58.768Z,31.80
2018-08-03T12:18:27.223Z,31.70
2018-08-03T12:23:24.102Z,31.40
2018-08-03T12:25:52.473Z,31.30
2018-08-03T12:28:20.979Z,31.30
2018-08-03T12:30:49.418Z,31.40
2018-08-03T12:35:45.976Z,31.70
2018-08-03T12:38:14.408Z,31.60
2018-08-03T12:40:42.832Z,31.50
2018-08-03T12:43:11.287Z,31.40
2018-08-03T12:45:39.766Z,31.50
2018-08-03T12:50:36.682Z,31.70
2018-08-03T12:53:05.110Z,31.70
2018-08-03T12:55:33.538Z,31.80
2018-08-03T12:58:01.932Z,31.90
2018-08-03T13:00:30.359Z,31.90
2018-08-03T13:02:58.755Z,32.20
2018-08-03T13:05:27.184Z,32.00
2018-08-03T13:07:55.732Z,32.00
2018-08-03T13:10:24.139Z,31.90
2018-08-03T13:12:52.589Z,31.80
2018-08-03T13:15:21.045Z,31.90
2018-08-03T13:17:49.489Z,31.80
2018-08-03T13:22:46.058Z,31.80
2018-08-03T13:25:14.569Z,31.70
2018-08-03T13:27:43.056Z,31.70
2018-08-03T13:30:11.476Z,31.80
2018-08-03T13:32:39.961Z,31.60
2018-08-03T13:35:08.376Z,31.50
2018-08-03T13:40:05.253Z,31.40
2018-08-03T13:45:01.944Z,31.10
2018-08-03T13:47:30.409Z,31.10
2018-08-03T13:49:58.809Z,31.20
2018-08-03T13:54:55.464Z,31.30
2018-08-03T13:57:23.953Z,31.40
2018-08-03T13:59:52.425Z,31.40
2018-08-03T14:02:24.553Z,31.30
2018-08-03T14:04:53.519Z,31.30
2018-08-03T14:07:21.944Z,31.40
2018-08-03T14:09:50.408Z,31.60
2018-08-03T14:12:18.875Z,31.70
2018-08-03T14:14:47.298Z,31.80
2018-08-03T14:17:15.773Z,31.80
2018-08-03T14:19:44.157Z,31.80
2018-08-03T14:22:12.693Z,31.80
2018-08-03T14:24:41.113Z,31.70
2018-08-03T14:27:09.601Z,31.50
2018-08-03T14:29:38.025Z,31.50
2018-08-03T14:32:06.589Z,31.50
2018-08-03T14:34:35.168Z,31.30
2018-08-03T14:37:03.666Z,31.20
2018-08-03T14:39:32.084Z,31.00
2018-08-03T14:42:00.563Z,30.90
2018-08-03T14:44:29.061Z,31.00
2018-08-03T14:49:25.597Z,31.10
2018-08-03T14:51:54.048Z,31.10
2018-08-03T14:54:22.445Z,31.20
2018-08-03T14:56:50.940Z,31.20
2018-08-03T14:59:19.345Z,31.20
2018-08-03T15:01:48.001Z,31.20
2018-08-03T15:04:16.456Z,31.20
2018-08-03T15:06:44.921Z,31.20
2018-08-03T15:09:13.431Z,31.30
2018-08-03T15:11:42.004Z,31.50
2018-08-03T15:14:10.515Z,31.70
2018-08-03T15:16:39.007Z,31.70
2018-08-03T15:19:07.792Z,31.80
2018-08-03T15:21:36.212Z,31.90
2018-08-03T15:24:04.763Z,31.80
2018-08-03T15:26:33.925Z,31.80
2018-08-03T15:29:02.505Z,31.80
2018-08-03T15:31:31.684Z,31.60
2018-08-03T15:34:00.312Z,31.60
2018-08-03T15:36:28.801Z,31.30
2018-08-03T15:38:57.341Z,31.00
2018-08-03T15:41:25.858Z,30.80
2018-08-03T15:46:23.113Z,30.60
2018-08-03T15:48:51.856Z,30.50
2018-08-03T15:51:20.293Z,30.50
2018-08-03T15:53:48.790Z,30.50
2018-08-03T15:56:17.254Z,30.40
2018-08-03T15:58:45.843Z,30.30
2018-08-03T16:01:14.225Z,30.30
2018-08-03T16:03:42.750Z,30.30
2018-08-03T16:06:11.157Z,30.30
2018-08-03T16:08:39.985Z,30.30
2018-08-03T16:11:08.568Z,30.40
2018-08-03T16:13:37.168Z,30.40
2018-08-03T16:16:05.597Z,30.50
2018-08-03T16:18:34.028Z,30.60
2018-08-03T16:21:02.460Z,30.70
2018-08-03T16:23:30.928Z,30.80
2018-08-03T16:25:59.358Z,30.90
2018-08-03T16:28:28.104Z,31.00
2018-08-03T16:30:56.601Z,30.90
2018-08-03T16:33:25.102Z,30.80
2018-08-03T16:35:53.517Z,30.70
2018-08-03T16:38:21.976Z,30.60
2018-08-03T16:40:50.387Z,30.40
2018-08-03T16:43:18.944Z,30.10
2018-08-03T16:45:47.386Z,29.90
2018-08-03T16:48:15.865Z,29.70
2018-08-03T16:50:44.402Z,29.70
2018-08-03T16:53:12.944Z,29.60
2018-08-03T16:55:41.592Z,29.60
2018-08-03T16:58:10.055Z,29.60
2018-08-03T17:03:06.629Z,29.60
2018-08-03T17:05:35.088Z,29.60
2018-08-03T17:08:03.504Z,29.60
2018-08-03T17:10:32.042Z,29.60
2018-08-03T17:13:00.464Z,29.60
2018-08-03T17:15:28.900Z,29.60
2018-08-03T17:17:57.308Z,29.50
2018-08-03T17:20:25.788Z,29.40
2018-08-03T17:22:54.262Z,29.40
2018-08-03T17:25:22.784Z,29.30
2018-08-03T17:30:19.444Z,29.10
2018-08-03T17:32:47.856Z,29.00
2018-08-03T17:35:16.305Z,28.90
2018-08-03T17:37:44.719Z,28.80
2018-08-03T17:40:13.227Z,28.80
2018-08-03T17:42:41.754Z,28.80
2018-08-03T17:45:10.252Z,28.80
2018-08-03T17:47:38.712Z,28.80
2018-08-03T17:50:07.265Z,28.80
2018-08-03T17:52:35.756Z,28.80
2018-08-03T17:55:04.281Z,28.70
2018-08-03T17:57:32.906Z,28.70
2018-08-03T18:00:01.384Z,28.60
2018-08-03T18:04:57.920Z,28.50
2018-08-03T18:07:26.320Z,28.40
2018-08-03T18:12:23.141Z,28.20
2018-08-03T18:14:51.789Z,28.10
2018-08-03T18:17:20.198Z,28.10
2018-08-03T18:19:48.696Z,28.00
2018-08-03T18:22:17.159Z,27.90
2018-08-03T18:24:45.595Z,27.90
2018-08-03T18:27:14.044Z,27.90
2018-08-03T18:29:42.626Z,27.80
2018-08-03T18:32:11.037Z,27.70
2018-08-03T18:34:39.561Z,27.60
2018-08-03T18:37:07.961Z,27.50
2018-08-03T18:39:36.536Z,27.40
2018-08-03T18:42:05.010Z,27.30
2018-08-03T18:44:33.436Z,27.10
2018-08-03T18:47:01.887Z,27.00
2018-08-03T18:49:30.305Z,26.90
2018-08-03T18:51:58.760Z,26.80
2018-08-03T18:54:27.274Z,26.80
2018-08-03T18:56:55.761Z,26.70
2018-08-03T18:59:24.226Z,26.70
2018-08-03T19:01:52.719Z,26.50
2018-08-03T19:04:21.181Z,26.40
2018-08-03T19:06:49.672Z,26.40
2018-08-03T19:09:18.476Z,26.30
2018-08-03T19:11:46.929Z,26.30
2018-08-03T19:16:43.585Z,26.20
2018-08-03T19:21:40.218Z,26.10
2018-08-03T19:24:08.650Z,26.00
2018-08-03T19:26:37.092Z,26.00
2018-08-03T19:29:05.512Z,25.90
2018-08-03T19:31:33.956Z,25.90
2018-08-03T19:34:02.513Z,25.90
2018-08-03T19:36:31.054Z,25.80
2018-08-03T19:38:59.444Z,25.80
2018-08-03T19:41:27.891Z,25.80
2018-08-03T19:43:56.341Z,25.70
2018-08-03T19:46:24.924Z,25.50
2018-08-03T19:48:53.374Z,25.40
2018-08-03T19:51:21.904Z,25.30
2018-08-03T19:53:50.328Z,25.20
2018-08-03T19:56:18.863Z,25.20
2018-08-03T19:58:47.512Z,25.10
2018-08-03T20:01:15.987Z,25.00
2018-08-03T20:03:44.421Z,25.00
2018-08-03T20:06:13.078Z,24.90
2018-08-03T20:08:41.567Z,24.90
2018-08-03T20:11:10.130Z,24.80
2018-08-03T20:13:38.739Z,24.80
2018-08-03T20:16:07.434Z,24.80
2018-08-03T20:18:35.968Z,24.70
2018-08-03T20:21:04.520Z,24.70
2018-08-03T20:23:33.393Z,24.60
2018-08-03T20:26:01.865Z,24.60
2018-08-03T20:28:30.837Z,24.60
2018-08-03T20:30:59.313Z,24.60
2018-08-03T20:33:27.800Z,24.50
2018-08-03T20:35:56.264Z,24.50
2018-08-03T20:38:24.898Z,24.40
2018-08-03T20:40:53.427Z,24.40
2018-08-03T20:43:21.990Z,24.40
2018-08-03T20:45:50.512Z,24.30
2018-08-03T20:48:18.980Z,24.20
2018-08-03T20:50:47.434Z,24.20
2018-08-03T20:53:15.866Z,24.10
2018-08-03T20:55:44.582Z,24.10
2018-08-03T20:58:13.037Z,24.00
2018-08-03T21:00:41.504Z,24.00
2018-08-03T21:03:09.989Z,23.90
2018-08-03T21:05:38.587Z,23.90
2018-08-03T21:08:07.062Z,23.80
2018-08-03T21:10:35.532Z,23.80
2018-08-03T21:13:04.126Z,23.70
2018-08-03T21:15:32.658Z,23.70
2018-08-03T21:18:01.115Z,23.70
2018-08-03T21:20:29.574Z,23.60
2018-08-03T21:22:58.052Z,23.60
2018-08-03T21:25:26.490Z,23.50
2018-08-03T21:27:54.943Z,23.40
2018-08-03T21:30:23.352Z,23.40
2018-08-03T21:32:51.772Z,23.40
2018-08-03T21:35:20.220Z,23.30
2018-08-03T21:37:48.886Z,23.30
2018-08-03T21:40:17.313Z,23.30
2018-08-03T21:42:45.852Z,23.20
2018-08-03T21:45:14.337Z,23.20
2018-08-03T21:47:42.800Z,23.20
2018-08-03T21:50:11.233Z,23.20
2018-08-03T21:52:39.692Z,23.10
2018-08-03T21:55:08.152Z,23.00
2018-08-03T21:57:36.728Z,23.00
2018-08-03T22:00:08.564Z,23.00
2018-08-03T22:05:06.001Z,22.90
2018-08-03T22:07:34.440Z,22.90
2018-08-03T22:10:02.907Z,22.90
2018-08-03T22:12:31.340Z,22.80
2018-08-03T22:14:59.810Z,22.80
2018-08-03T22:17:28.244Z,22.70
2018-08-03T22:19:56.944Z,22.70
2018-08-03T22:24:53.559Z,22.60
2018-08-03T22:27:21.972Z,22.60
2018-08-03T22:29:50.426Z,22.50
2018-08-03T22:32:18.888Z,22.50
2018-08-03T22:34:47.360Z,22.50
2018-08-03T22:37:15.756Z,22.50
2018-08-03T22:39:44.205Z,22.40
2018-08-03T22:42:12.620Z,22.30
2018-08-03T22:44:41.080Z,22.30
2018-08-03T22:47:09.556Z,22.30
2018-08-03T22:49:38.202Z,22.30
2018-08-03T22:52:06.774Z,22.20
2018-08-03T22:54:35.241Z,22.20
2018-08-03T22:57:03.667Z,22.20
2018-08-03T22:59:32.096Z,22.20
2018-08-03T23:02:00.509Z,22.10
2018-08-03T23:04:28.974Z,22.10
2018-08-03T23:06:57.424Z,22.10
2018-08-03T23:09:25.896Z,22.00
2018-08-03T23:11:54.328Z,21.80
2018-08-03T23:14:22.804Z,21.70
2018-08-03T23:16:51.220Z,21.50
2018-08-03T23:19:19.661Z,21.50
2018-08-03T23:21:48.068Z,21.40
2018-08-03T23:24:16.525Z,21.40
2018-08-03T23:26:44.980Z,21.40
2018-08-03T23:29:13.457Z,21.40
2018-08-03T23:31:41.877Z,21.40
2018-08-03T23:34:10.324Z,21.40
2018-08-03T23:39:08.656Z,21.50
2018-08-03T23:41:37.100Z,21.40
2018-08-03T23:46:34.565Z,21.30
2018-08-03T23:49:03.025Z,21.30
2018-08-03T23:51:31.452Z,21.30
2018-08-03T23:54:00.091Z,21.30
2018-08-03T23:56:28.555Z,21.30
2018-08-03T23:58:56.977Z,21.30
